sensor_id;sensor_type;location;lat;lon;timestamp;temperature;humidity
68842;SHT35;55849;48.482;2.332;2023-08-24T05:40:35;24.41;67.71
68842;SHT35;55849;48.482;2.332;2023-08-24T05:43:37;24.41;67.82
68842;SHT35;55849;48.482;2.332;2023-08-24T05:46:39;24.42;67.89
68842;SHT35;55849;48.482;2.332;2023-08-24T05:49:40;24.44;68.02
68842;SHT35;55849;48.482;2.332;2023-08-24T05:52:42;24.48;68.06
68842;SHT35;55849;48.482;2.332;2023-08-24T05:55:45;24.51;68.20
68842;SHT35;55849;48.482;2.332;2023-08-24T05:58:46;24.52;68.14
68842;SHT35;55849;48.482;2.332;2023-08-24T06:01:48;24.54;68.27
68842;SHT35;55849;48.482;2.332;2023-08-24T06:04:50;24.54;68.28
68842;SHT35;55849;48.482;2.332;2023-08-24T06:07:52;24.59;68.40
68842;SHT35;55849;48.482;2.332;2023-08-24T06:10:57;24.57;68.43
68842;SHT35;55849;48.482;2.332;2023-08-24T06:13:59;24.57;68.52
68842;SHT35;55849;48.482;2.332;2023-08-24T06:17:00;24.58;68.51
68842;SHT35;55849;48.482;2.332;2023-08-24T06:20:02;24.58;68.52
68842;SHT35;55849;48.482;2.332;2023-08-24T06:23:05;24.61;68.59
68842;SHT35;55849;48.482;2.332;2023-08-24T06:26:09;24.64;68.73
68842;SHT35;55849;48.482;2.332;2023-08-24T06:29:10;24.64;68.96
68842;SHT35;55849;48.482;2.332;2023-08-24T06:32:12;24.65;68.87
68842;SHT35;55849;48.482;2.332;2023-08-24T06:35:14;24.66;68.88
68842;SHT35;55849;48.482;2.332;2023-08-24T06:38:16;24.69;68.93
68842;SHT35;55849;48.482;2.332;2023-08-24T06:41:19;24.71;68.94
68842;SHT35;55849;48.482;2.332;2023-08-24T06:44:21;24.69;68.97
68842;SHT35;55849;48.482;2.332;2023-08-24T06:47:22;24.72;69.00
68842;SHT35;55849;48.482;2.332;2023-08-24T06:50:24;24.73;69.10
68842;SHT35;55849;48.482;2.332;2023-08-24T06:53:26;24.75;69.29
68842;SHT35;55849;48.482;2.332;2023-08-24T06:56:29;24.76;69.16
68842;SHT35;55849;48.482;2.332;2023-08-24T06:59:31;24.77;69.28
68842;SHT35;55849;48.482;2.332;2023-08-24T07:02:32;24.83;69.81
68842;SHT35;55849;48.482;2.332;2023-08-24T07:05:34;24.82;69.05
68842;SHT35;55849;48.482;2.332;2023-08-24T07:08:36;24.85;69.44
68842;SHT35;55849;48.482;2.332;2023-08-24T07:11:39;24.86;68.87
68842;SHT35;55849;48.482;2.332;2023-08-24T07:14:40;24.87;68.99
68842;SHT35;55849;48.482;2.332;2023-08-24T07:17:42;24.89;68.96
68842;SHT35;55849;48.482;2.332;2023-08-24T07:20:44;24.90;69.21
68842;SHT35;55849;48.482;2.332;2023-08-24T07:23:45;24.93;69.21
68842;SHT35;55849;48.482;2.332;2023-08-24T07:26:48;24.97;69.85
68842;SHT35;55849;48.482;2.332;2023-08-24T07:29:50;24.99;69.48
68842;SHT35;55849;48.482;2.332;2023-08-24T07:32:51;25.06;69.54
68842;SHT35;55849;48.482;2.332;2023-08-24T07:35:53;25.06;69.38
68842;SHT35;55849;48.482;2.332;2023-08-24T07:38:54;25.11;69.09
68842;SHT35;55849;48.482;2.332;2023-08-24T07:41:57;25.16;68.72
68842;SHT35;55849;48.482;2.332;2023-08-24T07:44:59;25.17;68.63
68842;SHT35;55849;48.482;2.332;2023-08-24T07:48:00;25.21;68.11
68842;SHT35;55849;48.482;2.332;2023-08-24T07:51:02;25.26;68.39
68842;SHT35;55849;48.482;2.332;2023-08-24T07:54:04;25.31;68.75
68842;SHT35;55849;48.482;2.332;2023-08-24T07:57:08;25.34;68.92
68842;SHT35;55849;48.482;2.332;2023-08-24T08:00:11;25.35;69.16
68842;SHT35;55849;48.482;2.332;2023-08-24T08:03:14;25.39;68.99
68842;SHT35;55849;48.482;2.332;2023-08-24T08:06:15;25.44;69.05
68842;SHT35;55849;48.482;2.332;2023-08-24T08:09:17;25.44;68.99
68842;SHT35;55849;48.482;2.332;2023-08-24T08:12:20;25.46;69.12
68842;SHT35;55849;48.482;2.332;2023-08-24T08:15:22;25.51;68.75
68842;SHT35;55849;48.482;2.332;2023-08-24T08:18:24;25.57;68.55
68842;SHT35;55849;48.482;2.332;2023-08-24T08:21:25;25.59;68.24
68842;SHT35;55849;48.482;2.332;2023-08-24T08:24:28;25.62;68.84
68842;SHT35;55849;48.482;2.332;2023-08-24T08:27:31;25.68;68.29
68842;SHT35;55849;48.482;2.332;2023-08-24T08:30:33;25.68;68.51
68842;SHT35;55849;48.482;2.332;2023-08-24T08:33:34;25.72;68.65
68842;SHT35;55849;48.482;2.332;2023-08-24T08:36:36;25.76;68.89
68842;SHT35;55849;48.482;2.332;2023-08-24T08:39:38;25.77;69.56
68842;SHT35;55849;48.482;2.332;2023-08-24T08:42:41;25.83;68.59
68842;SHT35;55849;48.482;2.332;2023-08-24T08:45:42;25.83;68.59
68842;SHT35;55849;48.482;2.332;2023-08-24T08:48:45;25.87;69.90
68842;SHT35;55849;48.482;2.332;2023-08-24T08:51:47;25.90;69.49
68842;SHT35;55849;48.482;2.332;2023-08-24T08:54:49;25.94;68.34
68842;SHT35;55849;48.482;2.332;2023-08-24T08:57:53;25.98;68.32
68842;SHT35;55849;48.482;2.332;2023-08-24T09:00:58;26.04;68.40
68842;SHT35;55849;48.482;2.332;2023-08-24T09:04:04;26.10;68.33
68842;SHT35;55849;48.482;2.332;2023-08-24T09:07:07;26.11;67.53
68842;SHT35;55849;48.482;2.332;2023-08-24T09:10:11;26.16;67.91
68842;SHT35;55849;48.482;2.332;2023-08-24T09:13:14;26.22;67.73
68842;SHT35;55849;48.482;2.332;2023-08-24T09:16:16;26.28;67.73
68842;SHT35;55849;48.482;2.332;2023-08-24T09:19:18;26.27;67.62
68842;SHT35;55849;48.482;2.332;2023-08-24T09:22:20;26.34;67.80
68842;SHT35;55849;48.482;2.332;2023-08-24T09:25:21;26.39;66.93
68842;SHT35;55849;48.482;2.332;2023-08-24T09:28:24;26.42;67.07
68842;SHT35;55849;48.482;2.332;2023-08-24T09:31:35;26.48;67.39
68842;SHT35;55849;48.482;2.332;2023-08-24T09:34:37;26.52;67.23
68842;SHT35;55849;48.482;2.332;2023-08-24T09:37:39;26.53;67.29
68842;SHT35;55849;48.482;2.332;2023-08-24T09:40:44;26.59;67.42
68842;SHT35;55849;48.482;2.332;2023-08-24T09:43:49;26.62;68.02
68842;SHT35;55849;48.482;2.332;2023-08-24T09:46:50;26.64;67.85
68842;SHT35;55849;48.482;2.332;2023-08-24T09:49:52;26.68;68.25
68842;SHT35;55849;48.482;2.332;2023-08-24T09:52:57;26.70;68.11
68842;SHT35;55849;48.482;2.332;2023-08-24T09:56:02;26.73;68.13
68842;SHT35;55849;48.482;2.332;2023-08-24T09:59:11;26.76;68.55
68842;SHT35;55849;48.482;2.332;2023-08-24T10:02:16;26.79;68.10
68842;SHT35;55849;48.482;2.332;2023-08-24T10:05:20;26.83;67.99
68842;SHT35;55849;48.482;2.332;2023-08-24T10:08:26;26.84;67.79
68842;SHT35;55849;48.482;2.332;2023-08-24T10:11:29;26.86;67.53
68842;SHT35;55849;48.482;2.332;2023-08-24T10:14:39;26.90;67.96
68842;SHT35;55849;48.482;2.332;2023-08-24T10:17:42;26.90;67.86
68842;SHT35;55849;48.482;2.332;2023-08-24T10:20:45;26.91;67.39
68842;SHT35;55849;48.482;2.332;2023-08-24T10:23:48;26.96;66.62
68842;SHT35;55849;48.482;2.332;2023-08-24T10:26:50;26.98;66.70
68842;SHT35;55849;48.482;2.332;2023-08-24T10:29:53;27.01;66.78
68842;SHT35;55849;48.482;2.332;2023-08-24T10:32:55;27.05;66.35
68842;SHT35;55849;48.482;2.332;2023-08-24T10:35:57;27.08;65.81
68842;SHT35;55849;48.482;2.332;2023-08-24T10:39:02;27.10;66.27
68842;SHT35;55849;48.482;2.332;2023-08-24T10:42:10;27.14;65.42
68842;SHT35;55849;48.482;2.332;2023-08-24T10:45:14;27.18;65.78
68842;SHT35;55849;48.482;2.332;2023-08-24T10:48:16;27.24;65.54
68842;SHT35;55849;48.482;2.332;2023-08-24T10:51:19;27.24;65.02
68842;SHT35;55849;48.482;2.332;2023-08-24T10:54:30;27.22;65.62
68842;SHT35;55849;48.482;2.332;2023-08-24T10:57:35;27.20;71.08
68842;SHT35;55849;48.482;2.332;2023-08-24T11:00:39;27.15;70.83
68842;SHT35;55849;48.482;2.332;2023-08-24T11:03:41;27.05;71.18
68842;SHT35;55849;48.482;2.332;2023-08-24T11:06:54;27.00;70.64
68842;SHT35;55849;48.482;2.332;2023-08-24T11:09:55;26.93;70.42
68842;SHT35;55849;48.482;2.332;2023-08-24T11:13:08;26.86;71.07
68842;SHT35;55849;48.482;2.332;2023-08-24T11:16:41;26.82;72.20
68842;SHT35;55849;48.482;2.332;2023-08-24T11:19:47;26.75;72.78
68842;SHT35;55849;48.482;2.332;2023-08-24T11:22:49;26.68;72.41
68842;SHT35;55849;48.482;2.332;2023-08-24T11:25:52;26.64;72.31
68842;SHT35;55849;48.482;2.332;2023-08-24T11:28:56;26.56;72.46
68842;SHT35;55849;48.482;2.332;2023-08-24T11:31:59;26.53;74.13
68842;SHT35;55849;48.482;2.332;2023-08-24T11:35:01;26.49;74.43
68842;SHT35;55849;48.482;2.332;2023-08-24T11:38:03;26.42;74.20
68842;SHT35;55849;48.482;2.332;2023-08-24T11:41:12;26.35;74.05
68842;SHT35;55849;48.482;2.332;2023-08-24T11:44:14;26.34;74.76
68842;SHT35;55849;48.482;2.332;2023-08-24T11:47:19;26.25;75.66
68842;SHT35;55849;48.482;2.332;2023-08-24T11:50:23;26.21;75.11
68842;SHT35;55849;48.482;2.332;2023-08-24T11:53:25;26.17;74.77
68842;SHT35;55849;48.482;2.332;2023-08-24T11:56:28;26.16;75.41
68842;SHT35;55849;48.482;2.332;2023-08-24T11:59:30;26.16;74.85
68842;SHT35;55849;48.482;2.332;2023-08-24T12:02:33;26.14;75.08
68842;SHT35;55849;48.482;2.332;2023-08-24T12:05:35;26.11;75.41
68842;SHT35;55849;48.482;2.332;2023-08-24T12:08:37;26.08;76.54
68842;SHT35;55849;48.482;2.332;2023-08-24T12:11:39;26.07;76.22
68842;SHT35;55849;48.482;2.332;2023-08-24T12:14:41;26.08;75.79
68842;SHT35;55849;48.482;2.332;2023-08-24T12:17:44;26.05;76.07
68842;SHT35;55849;48.482;2.332;2023-08-24T12:20:47;26.04;76.20
68842;SHT35;55849;48.482;2.332;2023-08-24T12:23:56;26.04;75.96
68842;SHT35;55849;48.482;2.332;2023-08-24T12:26:58;26.04;76.77
68842;SHT35;55849;48.482;2.332;2023-08-24T12:30:00;26.00;76.77
68842;SHT35;55849;48.482;2.332;2023-08-24T12:33:04;26.01;77.17
68842;SHT35;55849;48.482;2.332;2023-08-24T12:36:05;25.97;76.35
68842;SHT35;55849;48.482;2.332;2023-08-24T12:39:07;25.96;77.10
68842;SHT35;55849;48.482;2.332;2023-08-24T12:42:10;25.96;76.57
68842;SHT35;55849;48.482;2.332;2023-08-24T12:45:12;25.92;76.73
68842;SHT35;55849;48.482;2.332;2023-08-24T12:48:15;25.89;76.94
68842;SHT35;55849;48.482;2.332;2023-08-24T12:51:17;25.87;76.81
68842;SHT35;55849;48.482;2.332;2023-08-24T12:54:18;25.83;76.91
68842;SHT35;55849;48.482;2.332;2023-08-24T12:57:20;25.82;77.04
68842;SHT35;55849;48.482;2.332;2023-08-24T13:00:22;25.82;77.16
68842;SHT35;55849;48.482;2.332;2023-08-24T13:03:25;25.80;77.52
68842;SHT35;55849;48.482;2.332;2023-08-24T13:06:26;25.76;76.98
68842;SHT35;55849;48.482;2.332;2023-08-24T13:09:28;25.70;77.79
68842;SHT35;55849;48.482;2.332;2023-08-24T13:12:29;25.69;77.58
68842;SHT35;55849;48.482;2.332;2023-08-24T13:15:31;25.68;77.45
68842;SHT35;55849;48.482;2.332;2023-08-24T13:18:34;25.66;77.31
68842;SHT35;55849;48.482;2.332;2023-08-24T13:21:35;25.58;77.02
68842;SHT35;55849;48.482;2.332;2023-08-24T13:24:37;25.51;75.95
68842;SHT35;55849;48.482;2.332;2023-08-24T13:27:40;25.45;75.75
68842;SHT35;55849;48.482;2.332;2023-08-24T13:30:41;25.39;77.22
68842;SHT35;55849;48.482;2.332;2023-08-24T13:33:44;25.37;77.57
68842;SHT35;55849;48.482;2.332;2023-08-24T13:36:46;25.37;77.45
68842;SHT35;55849;48.482;2.332;2023-08-24T13:39:48;25.31;78.47
68842;SHT35;55849;48.482;2.332;2023-08-24T13:42:49;25.31;78.13
68842;SHT35;55849;48.482;2.332;2023-08-24T13:45:51;25.30;77.43
68842;SHT35;55849;48.482;2.332;2023-08-24T13:48:54;25.27;78.77
68842;SHT35;55849;48.482;2.332;2023-08-24T13:51:56;25.24;78.81
68842;SHT35;55849;48.482;2.332;2023-08-24T13:54:57;25.26;79.54
68842;SHT35;55849;48.482;2.332;2023-08-24T13:57:59;25.23;78.87
68842;SHT35;55849;48.482;2.332;2023-08-24T14:01:01;25.24;78.69
68842;SHT35;55849;48.482;2.332;2023-08-24T14:04:04;25.26;78.62
68842;SHT35;55849;48.482;2.332;2023-08-24T14:07:06;25.28;77.82
68842;SHT35;55849;48.482;2.332;2023-08-24T14:10:08;25.27;78.89
68842;SHT35;55849;48.482;2.332;2023-08-24T14:13:10;25.26;78.44
68842;SHT35;55849;48.482;2.332;2023-08-24T14:16:11;25.30;78.89
68842;SHT35;55849;48.482;2.332;2023-08-24T14:19:14;25.28;78.97
68842;SHT35;55849;48.482;2.332;2023-08-24T14:22:16;25.30;78.89
68842;SHT35;55849;48.482;2.332;2023-08-24T14:25:18;25.28;78.73
68842;SHT35;55849;48.482;2.332;2023-08-24T14:28:21;25.31;79.49
68842;SHT35;55849;48.482;2.332;2023-08-24T14:31:24;25.28;78.72
68842;SHT35;55849;48.482;2.332;2023-08-24T14:34:27;25.28;79.72
68842;SHT35;55849;48.482;2.332;2023-08-24T14:37:29;25.27;79.08
68842;SHT35;55849;48.482;2.332;2023-08-24T14:40:31;25.27;79.29
68842;SHT35;55849;48.482;2.332;2023-08-24T14:43:33;25.24;79.72
68842;SHT35;55849;48.482;2.332;2023-08-24T14:46:34;25.24;78.71
68842;SHT35;55849;48.482;2.332;2023-08-24T14:49:37;25.24;78.93
68842;SHT35;55849;48.482;2.332;2023-08-24T14:52:40;25.23;79.06
68842;SHT35;55849;48.482;2.332;2023-08-24T14:55:41;25.23;78.86
68842;SHT35;55849;48.482;2.332;2023-08-24T14:58:43;25.26;79.73
68842;SHT35;55849;48.482;2.332;2023-08-24T15:01:45;25.24;80.02
68842;SHT35;55849;48.482;2.332;2023-08-24T15:04:48;25.26;79.70
68842;SHT35;55849;48.482;2.332;2023-08-24T15:07:50;25.28;80.12
68842;SHT35;55849;48.482;2.332;2023-08-24T15:10:54;25.30;80.05
68842;SHT35;55849;48.482;2.332;2023-08-24T15:13:55;25.33;80.42
68842;SHT35;55849;48.482;2.332;2023-08-24T15:16:57;25.37;80.52
68842;SHT35;55849;48.482;2.332;2023-08-24T15:20:00;25.44;80.44
68842;SHT35;55849;48.482;2.332;2023-08-24T15:23:05;25.51;80.69
68842;SHT35;55849;48.482;2.332;2023-08-24T15:26:07;25.62;80.78
68842;SHT35;55849;48.482;2.332;2023-08-24T15:29:12;25.76;81.42
68842;SHT35;55849;48.482;2.332;2023-08-24T15:32:15;25.87;80.89
68842;SHT35;55849;48.482;2.332;2023-08-24T15:35:18;26.00;79.78
68842;SHT35;55849;48.482;2.332;2023-08-24T15:38:19;26.05;79.94
68842;SHT35;55849;48.482;2.332;2023-08-24T15:41:21;26.13;79.88
68842;SHT35;55849;48.482;2.332;2023-08-24T15:44:23;26.21;80.56
68842;SHT35;55849;48.482;2.332;2023-08-24T15:47:24;26.37;80.95
68842;SHT35;55849;48.482;2.332;2023-08-24T15:50:28;26.55;79.86
68842;SHT35;55849;48.482;2.332;2023-08-24T15:53:29;26.75;80.35
68842;SHT35;55849;48.482;2.332;2023-08-24T15:56:31;26.96;79.39
68842;SHT35;55849;48.482;2.332;2023-08-24T15:59:33;27.16;78.81
68842;SHT35;55849;48.482;2.332;2023-08-24T16:02:34;27.39;78.99
68842;SHT35;55849;48.482;2.332;2023-08-24T16:05:37;27.57;79.06
68842;SHT35;55849;48.482;2.332;2023-08-24T16:08:39;27.73;78.46
68842;SHT35;55849;48.482;2.332;2023-08-24T16:11:40;27.87;78.44
68842;SHT35;55849;48.482;2.332;2023-08-24T16:14:42;28.02;78.10
68842;SHT35;55849;48.482;2.332;2023-08-24T16:17:43;28.15;77.90
68842;SHT35;55849;48.482;2.332;2023-08-24T16:20:48;28.28;77.22
68842;SHT35;55849;48.482;2.332;2023-08-24T16:23:49;28.39;76.91
68842;SHT35;55849;48.482;2.332;2023-08-24T16:26:51;28.49;76.59
68842;SHT35;55849;48.482;2.332;2023-08-24T16:29:53;28.59;76.23
68842;SHT35;55849;48.482;2.332;2023-08-24T16:32:55;28.66;76.02
68842;SHT35;55849;48.482;2.332;2023-08-24T16:35:57;28.73;75.82
68842;SHT35;55849;48.482;2.332;2023-08-24T16:38:59;28.80;75.59
68842;SHT35;55849;48.482;2.332;2023-08-24T16:42:01;28.81;75.21
68842;SHT35;55849;48.482;2.332;2023-08-24T16:45:04;28.86;74.91
68842;SHT35;55849;48.482;2.332;2023-08-24T16:48:06;28.90;75.11
68842;SHT35;55849;48.482;2.332;2023-08-24T16:51:09;28.91;75.06
68842;SHT35;55849;48.482;2.332;2023-08-24T16:54:11;28.93;74.67
68842;SHT35;55849;48.482;2.332;2023-08-24T16:57:12;28.93;73.78
68842;SHT35;55849;48.482;2.332;2023-08-24T17:00:16;28.88;74.38
68842;SHT35;55849;48.482;2.332;2023-08-24T17:03:18;28.83;74.45
68842;SHT35;55849;48.482;2.332;2023-08-24T17:06:20;28.78;74.49
68842;SHT35;55849;48.482;2.332;2023-08-24T17:09:22;28.69;74.51
68842;SHT35;55849;48.482;2.332;2023-08-24T17:12:24;28.61;74.63
68842;SHT35;55849;48.482;2.332;2023-08-24T17:15:25;28.50;74.78
68842;SHT35;55849;48.482;2.332;2023-08-24T17:18:27;28.42;74.83
68842;SHT35;55849;48.482;2.332;2023-08-24T17:21:30;28.29;75.04
68842;SHT35;55849;48.482;2.332;2023-08-24T17:24:32;28.25;75.32
68842;SHT35;55849;48.482;2.332;2023-08-24T17:27:33;28.15;75.31
68842;SHT35;55849;48.482;2.332;2023-08-24T17:30:35;28.09;75.56
68842;SHT35;55849;48.482;2.332;2023-08-24T17:33:37;28.01;75.77
68842;SHT35;55849;48.482;2.332;2023-08-24T17:36:40;27.94;75.60
68842;SHT35;55849;48.482;2.332;2023-08-24T17:39:41;27.87;75.89
68842;SHT35;55849;48.482;2.332;2023-08-24T17:42:43;27.80;76.13
68842;SHT35;55849;48.482;2.332;2023-08-24T17:45:44;27.73;76.15
68842;SHT35;55849;48.482;2.332;2023-08-24T17:48:46;27.69;76.42
68842;SHT35;55849;48.482;2.332;2023-08-24T17:51:49;27.62;76.57
68842;SHT35;55849;48.482;2.332;2023-08-24T17:54:51;27.56;76.73
68842;SHT35;55849;48.482;2.332;2023-08-24T17:57:52;27.48;76.87
68842;SHT35;55849;48.482;2.332;2023-08-24T18:00:54;27.42;77.04
68842;SHT35;55849;48.482;2.332;2023-08-24T18:03:56;27.35;77.11
68842;SHT35;55849;48.482;2.332;2023-08-24T18:06:59;27.32;77.19
68842;SHT35;55849;48.482;2.332;2023-08-24T18:10:00;27.27;77.33
68842;SHT35;55849;48.482;2.332;2023-08-24T18:13:02;27.21;77.42
68842;SHT35;55849;48.482;2.332;2023-08-24T18:16:04;27.14;77.51
68842;SHT35;55849;48.482;2.332;2023-08-24T18:19:06;27.10;77.63
68842;SHT35;55849;48.482;2.332;2023-08-24T18:22:09;27.04;77.77
68842;SHT35;55849;48.482;2.332;2023-08-24T18:25:10;27.01;77.76
68842;SHT35;55849;48.482;2.332;2023-08-24T18:28:12;26.96;77.49
68842;SHT35;55849;48.482;2.332;2023-08-24T18:31:13;26.89;77.88
68842;SHT35;55849;48.482;2.332;2023-08-24T18:34:15;26.83;78.06
68842;SHT35;55849;48.482;2.332;2023-08-24T18:37:18;26.80;78.12
68842;SHT35;55849;48.482;2.332;2023-08-24T18:40:20;26.76;78.29
68842;SHT35;55849;48.482;2.332;2023-08-24T18:43:22;26.69;78.22
68842;SHT35;55849;48.482;2.332;2023-08-24T18:46:23;26.63;78.60
68842;SHT35;55849;48.482;2.332;2023-08-24T18:49:25;26.62;78.73
68842;SHT35;55849;48.482;2.332;2023-08-24T18:52:28;26.57;78.79
68842;SHT35;55849;48.482;2.332;2023-08-24T18:55:29;26.53;78.70
68842;SHT35;55849;48.482;2.332;2023-08-24T18:58:31;26.51;78.73
68842;SHT35;55849;48.482;2.332;2023-08-24T19:01:33;26.44;78.87
68842;SHT35;55849;48.482;2.332;2023-08-24T19:04:34;26.39;78.97
68842;SHT35;55849;48.482;2.332;2023-08-24T19:07:37;26.38;78.91
68842;SHT35;55849;48.482;2.332;2023-08-24T19:10:39;26.32;79.04
68842;SHT35;55849;48.482;2.332;2023-08-24T19:13:41;26.25;79.03
68842;SHT35;55849;48.482;2.332;2023-08-24T19:16:42;26.24;79.18
68842;SHT35;55849;48.482;2.332;2023-08-24T19:19:44;26.18;79.27
68842;SHT35;55849;48.482;2.332;2023-08-24T19:22:47;26.14;78.95
68842;SHT35;55849;48.482;2.332;2023-08-24T19:25:49;26.11;79.04
68842;SHT35;55849;48.482;2.332;2023-08-24T19:28:50;26.07;79.12
68842;SHT35;55849;48.482;2.332;2023-08-24T19:31:52;26.01;79.23
68842;SHT35;55849;48.482;2.332;2023-08-24T19:34:53;25.97;80.02
68842;SHT35;55849;48.482;2.332;2023-08-24T19:37:56;25.96;79.56
68842;SHT35;55849;48.482;2.332;2023-08-24T19:41:00;25.90;79.67
68842;SHT35;55849;48.482;2.332;2023-08-24T19:44:01;25.90;79.64
68842;SHT35;55849;48.482;2.332;2023-08-24T19:47:03;25.86;79.38
68842;SHT35;55849;48.482;2.332;2023-08-24T19:50:06;25.80;79.26
68842;SHT35;55849;48.482;2.332;2023-08-24T19:53:09;25.75;79.91
68842;SHT35;55849;48.482;2.332;2023-08-24T19:56:10;25.72;79.82
68842;SHT35;55849;48.482;2.332;2023-08-24T19:59:12;25.69;79.78
68842;SHT35;55849;48.482;2.332;2023-08-24T20:02:14;25.65;80.01
68842;SHT35;55849;48.482;2.332;2023-08-24T20:05:15;25.62;80.14
68842;SHT35;55849;48.482;2.332;2023-08-24T20:08:18;25.58;80.42
68842;SHT35;55849;48.482;2.332;2023-08-24T20:11:20;25.59;80.18
68842;SHT35;55849;48.482;2.332;2023-08-24T20:14:22;25.52;80.40
68842;SHT35;55849;48.482;2.332;2023-08-24T20:17:27;25.51;80.43
68842;SHT35;55849;48.482;2.332;2023-08-24T20:20:29;25.48;80.42
68842;SHT35;55849;48.482;2.332;2023-08-24T20:23:32;25.44;80.53
68842;SHT35;55849;48.482;2.332;2023-08-24T20:26:34;25.42;80.61
68842;SHT35;55849;48.482;2.332;2023-08-24T20:29:36;25.39;80.80
68842;SHT35;55849;48.482;2.332;2023-08-24T20:32:38;25.39;80.27
68842;SHT35;55849;48.482;2.332;2023-08-24T20:35:40;25.34;80.64
68842;SHT35;55849;48.482;2.332;2023-08-24T20:38:42;25.34;80.42
68842;SHT35;55849;48.482;2.332;2023-08-24T20:41:46;25.31;80.84
68842;SHT35;55849;48.482;2.332;2023-08-24T20:44:48;25.28;81.02
68842;SHT35;55849;48.482;2.332;2023-08-24T20:47:49;25.30;80.96
68842;SHT35;55849;48.482;2.332;2023-08-24T20:50:54;25.28;80.90
68842;SHT35;55849;48.482;2.332;2023-08-24T20:53:58;25.24;81.07
68842;SHT35;55849;48.482;2.332;2023-08-24T20:57:00;25.21;81.05
68842;SHT35;55849;48.482;2.332;2023-08-24T21:00:02;25.20;80.96
68842;SHT35;55849;48.482;2.332;2023-08-24T21:03:06;25.17;81.02
68842;SHT35;55849;48.482;2.332;2023-08-24T21:06:07;25.16;80.92
68842;SHT35;55849;48.482;2.332;2023-08-24T21:09:10;25.14;81.13
68842;SHT35;55849;48.482;2.332;2023-08-24T21:12:12;25.10;81.05
68842;SHT35;55849;48.482;2.332;2023-08-24T21:15:14;25.07;81.07
68842;SHT35;55849;48.482;2.332;2023-08-24T21:18:15;25.06;81.23
68842;SHT35;55849;48.482;2.332;2023-08-24T21:21:17;25.03;80.97
68842;SHT35;55849;48.482;2.332;2023-08-24T21:24:20;25.00;80.81
68842;SHT35;55849;48.482;2.332;2023-08-24T21:27:22;24.99;80.79
68842;SHT35;55849;48.482;2.332;2023-08-24T21:30:23;24.96;81.02
68842;SHT35;55849;48.482;2.332;2023-08-24T21:33:25;24.90;80.32
68842;SHT35;55849;48.482;2.332;2023-08-24T21:36:26;24.85;80.74
68842;SHT35;55849;48.482;2.332;2023-08-24T21:39:29;24.86;81.04
68842;SHT35;55849;48.482;2.332;2023-08-24T21:42:31;24.83;81.03
68842;SHT35;55849;48.482;2.332;2023-08-24T21:45:33;24.79;80.73
68842;SHT35;55849;48.482;2.332;2023-08-24T21:48:35;24.77;80.14
68842;SHT35;55849;48.482;2.332;2023-08-24T21:51:36;24.73;80.78
68842;SHT35;55849;48.482;2.332;2023-08-24T21:54:39;24.71;80.65
68842;SHT35;55849;48.482;2.332;2023-08-24T21:57:41;24.69;80.87
68842;SHT35;55849;48.482;2.332;2023-08-24T22:00:42;24.66;80.55
68842;SHT35;55849;48.482;2.332;2023-08-24T22:03:44;24.65;80.85
68842;SHT35;55849;48.482;2.332;2023-08-24T22:06:46;24.62;80.76
68842;SHT35;55849;48.482;2.332;2023-08-24T22:09:49;24.62;80.88
68842;SHT35;55849;48.482;2.332;2023-08-24T22:12:50;24.58;80.59
68842;SHT35;55849;48.482;2.332;2023-08-24T22:15:53;24.55;80.89
68842;SHT35;55849;48.482;2.332;2023-08-24T22:18:55;24.51;81.11
68842;SHT35;55849;48.482;2.332;2023-08-24T22:21:57;24.52;81.58
68842;SHT35;55849;48.482;2.332;2023-08-24T22:25:00;24.49;81.53
68842;SHT35;55849;48.482;2.332;2023-08-24T22:28:01;24.49;81.88
68842;SHT35;55849;48.482;2.332;2023-08-24T22:31:03;24.49;82.00
